Sumisemaru No.5 — JE3162 — position and weather

sailwx.info

Track history (hours):
 
Tides and Currents Weather Stations Pressure Air Temp Water Temp Dewpoint Dewpoint Depression Visibility Wind Speed Wind Dir Waves Ship Positions

Sumisemaru No.5

Last reported at 2016-Jun-17 11:28 UTC. Time now 2016-Jun-29 16:36 UTC.
Position N 35°11' E 139°46'.
Warning: this ship's position is 12 days out of date.

Length 96 m; draft 3.7 m.

Type: Cargo ship. MMSI: 431700423.

Date/timePositionNaut miles runAvg speedWind from/ knotsBaromVisibWave heightAir tempDewpointWater temp
2016-Jun-17 11:28N 35°11' E 139°46'1112.4
2016-Jun-17 10:34N 35°22' E 139°42'1313.2
2016-Jun-17 09:33N 35°31' E 139°54'1110.8
2016-Jun-17 08:33N 35°36' E 140°05'0 0.0
2016-Jun-17 07:33N 35°36' E 140°05'0 0.0
2016-Jun-17 06:33N 35°36' E 140°05'0 0.0
2016-Jun-17 05:27N 35°36' E 140°05'4 2.3
2016-Jun-17 03:32N 35°33' E 140°01'0 0.0
2016-Jun-17 02:32N 35°33' E 140°01'0 0.0
2016-Jun-17 01:32N 35°33' E 140°01'0 0.1
2016-Jun-17 00:26N 35°33' E 140°01'0 0.1
2016-Jun-16 23:32N 35°33' E 140°01'1 1.3
2016-Jun-16 22:33N 35°33' E 139°59'1313.0
2016-Jun-16 21:33N 35°25' E 139°46'6 5.8
2016-Jun-16 20:33N 35°29' E 139°40'0 0.0
2016-Jun-16 19:33N 35°29' E 139°40'0 0.0
2016-Jun-16 18:33N 35°29' E 139°40'0 0.0
2016-Jun-16 17:33N 35°29' E 139°40'0 0.0
2016-Jun-16 16:30N 35°29' E 139°40'0 0.0
2016-Jun-16 15:33N 35°29' E 139°40'0 0.0
2016-Jun-16 14:33N 35°29' E 139°40'0 0.0
2016-Jun-16 13:33N 35°29' E 139°40'0 0.0
2016-Jun-16 12:33N 35°29' E 139°40'0 0.0
2016-Jun-16 11:33N 35°29' E 139°40'0 0.0
2016-Jun-16 10:33N 35°29' E 139°40'0 0.0
2016-Jun-16 09:33N 35°29' E 139°40'0 0.0
2016-Jun-16 08:33N 35°29' E 139°40'0 0.0
2016-Jun-16 07:33N 35°29' E 139°40'0 0.0
2016-Jun-16 06:33N 35°29' E 139°40'0 0.0
2016-Jun-16 05:33N 35°29' E 139°40'0 0.0
2016-Jun-16 04:33N 35°29' E 139°40'0 0.0
2016-Jun-16 03:33N 35°29' E 139°40'0 0.0
2016-Jun-16 02:33N 35°29' E 139°40'0 0.0
2016-Jun-16 01:33N 35°29' E 139°40'0 0.3
2016-Jun-16 00:33N 35°28' E 139°40'1010.2
2016-Jun-15 23:33N 35°19' E 139°44'1111.0
2016-Jun-15 22:33N 35°08' E 139°45'1611.3
2016-Jun-15 21:09N 34°52' E 139°43'1211.8
2016-Jun-15 20:09N 34°52' E 139°57'711.0
2016-Jun-15 19:28N 34°55' E 140°05'  
2016-Jun-08 10:16N 35°06' E 139°44'1012.8
2016-Jun-08 09:28N 35°17' E 139°45'1112.2
2016-Jun-08 08:33N 35°27' E 139°41'2 1.7
2016-Jun-08 07:31N 35°29' E 139°40'0 0.0
2016-Jun-08 06:31N 35°29' E 139°40'0 0.0
2016-Jun-08 05:31N 35°29' E 139°40'0 0.0
2016-Jun-08 04:31N 35°29' E 139°40'0 0.0
2016-Jun-08 03:33N 35°29' E 139°40'3 2.5
2016-Jun-08 02:33N 35°27' E 139°42'1 1.3
2016-Jun-08 01:33N 35°25' E 139°42'0 0.0
2016-Jun-08 00:27N 35°25' E 139°42'0 0.0
2016-Jun-07 23:33N 35°25' E 139°42'0 0.0
2016-Jun-07 22:30N 35°25' E 139°42'0 0.0
2016-Jun-07 21:33N 35°25' E 139°42'0 0.0
2016-Jun-07 20:33N 35°25' E 139°42'0 0.1
2016-Jun-07 19:33N 35°25' E 139°42'0 0.1
2016-Jun-07 18:33N 35°25' E 139°42'0 0.0
2016-Jun-07 17:33N 35°25' E 139°42'0 0.1
2016-Jun-07 16:33N 35°25' E 139°42'0 0.0
2016-Jun-07 15:33N 35°25' E 139°42'0 0.0
2016-Jun-07 14:32N 35°25' E 139°42'0 0.0
2016-Jun-07 13:32N 35°25' E 139°42'0 0.0
2016-Jun-07 12:32N 35°25' E 139°42'0 0.0
2016-Jun-07 11:29N 35°25' E 139°42'  
Track history (hours):
 
Tides and Currents Weather Stations Pressure Air Temp Water Temp Dewpoint Dewpoint Depression Visibility Wind Speed Wind Dir Waves Ship Positions

Sumisemaru No.5

Last reported at 2016-Jun-17 11:28 UTC. Time now 2016-Jun-29 16:36 UTC.
Position N 35°11' E 139°46'.
Warning: this ship's position is 12 days out of date.

Length 96 m; draft 3.7 m.

Type: Cargo ship. MMSI: 431700423.

Date/timePositionNaut miles runAvg speedWind from/ knotsBaromVisibWave heightAir tempDewpointWater temp
2016-Jun-17 11:28N 35°11' E 139°46'1112.4
2016-Jun-17 10:34N 35°22' E 139°42'1313.2
2016-Jun-17 09:33N 35°31' E 139°54'1110.8
2016-Jun-17 08:33N 35°36' E 140°05'0 0.0
2016-Jun-17 07:33N 35°36' E 140°05'0 0.0
2016-Jun-17 06:33N 35°36' E 140°05'0 0.0
2016-Jun-17 05:27N 35°36' E 140°05'4 2.3
2016-Jun-17 03:32N 35°33' E 140°01'0 0.0
2016-Jun-17 02:32N 35°33' E 140°01'0 0.0
2016-Jun-17 01:32N 35°33' E 140°01'0 0.1
2016-Jun-17 00:26N 35°33' E 140°01'0 0.1
2016-Jun-16 23:32N 35°33' E 140°01'1 1.3
2016-Jun-16 22:33N 35°33' E 139°59'1313.0
2016-Jun-16 21:33N 35°25' E 139°46'6 5.8
2016-Jun-16 20:33N 35°29' E 139°40'0 0.0
2016-Jun-16 19:33N 35°29' E 139°40'0 0.0
2016-Jun-16 18:33N 35°29' E 139°40'0 0.0
2016-Jun-16 17:33N 35°29' E 139°40'0 0.0
2016-Jun-16 16:30N 35°29' E 139°40'0 0.0
2016-Jun-16 15:33N 35°29' E 139°40'0 0.0
2016-Jun-16 14:33N 35°29' E 139°40'0 0.0
2016-Jun-16 13:33N 35°29' E 139°40'0 0.0
2016-Jun-16 12:33N 35°29' E 139°40'0 0.0
2016-Jun-16 11:33N 35°29' E 139°40'0 0.0
2016-Jun-16 10:33N 35°29' E 139°40'0 0.0
2016-Jun-16 09:33N 35°29' E 139°40'0 0.0
2016-Jun-16 08:33N 35°29' E 139°40'0 0.0
2016-Jun-16 07:33N 35°29' E 139°40'0 0.0
2016-Jun-16 06:33N 35°29' E 139°40'0 0.0
2016-Jun-16 05:33N 35°29' E 139°40'0 0.0
2016-Jun-16 04:33N 35°29' E 139°40'0 0.0
2016-Jun-16 03:33N 35°29' E 139°40'0 0.0
2016-Jun-16 02:33N 35°29' E 139°40'0 0.0
2016-Jun-16 01:33N 35°29' E 139°40'0 0.3
2016-Jun-16 00:33N 35°28' E 139°40'1010.2
2016-Jun-15 23:33N 35°19' E 139°44'1111.0
2016-Jun-15 22:33N 35°08' E 139°45'1611.3
2016-Jun-15 21:09N 34°52' E 139°43'1211.8
2016-Jun-15 20:09N 34°52' E 139°57'711.0
2016-Jun-15 19:28N 34°55' E 140°05'  
2016-Jun-08 10:16N 35°06' E 139°44'1012.8
2016-Jun-08 09:28N 35°17' E 139°45'1112.2
2016-Jun-08 08:33N 35°27' E 139°41'2 1.7
2016-Jun-08 07:31N 35°29' E 139°40'0 0.0
2016-Jun-08 06:31N 35°29' E 139°40'0 0.0
2016-Jun-08 05:31N 35°29' E 139°40'0 0.0
2016-Jun-08 04:31N 35°29' E 139°40'0 0.0
2016-Jun-08 03:33N 35°29' E 139°40'3 2.5
2016-Jun-08 02:33N 35°27' E 139°42'1 1.3
2016-Jun-08 01:33N 35°25' E 139°42'0 0.0
2016-Jun-08 00:27N 35°25' E 139°42'0 0.0
2016-Jun-07 23:33N 35°25' E 139°42'0 0.0
2016-Jun-07 22:30N 35°25' E 139°42'0 0.0
2016-Jun-07 21:33N 35°25' E 139°42'0 0.0
2016-Jun-07 20:33N 35°25' E 139°42'0 0.1
2016-Jun-07 19:33N 35°25' E 139°42'0 0.1
2016-Jun-07 18:33N 35°25' E 139°42'0 0.0
2016-Jun-07 17:33N 35°25' E 139°42'0 0.1
2016-Jun-07 16:33N 35°25' E 139°42'0 0.0
2016-Jun-07 15:33N 35°25' E 139°42'0 0.0
2016-Jun-07 14:32N 35°25' E 139°42'0 0.0
2016-Jun-07 13:32N 35°25' E 139°42'0 0.0
2016-Jun-07 12:32N 35°25' E 139°42'0 0.0
2016-Jun-07 11:29N 35°25' E 139°42'  

Dump ship's entire track history